sensor_id;sensor_type;location;lat;lon;timestamp;P1;durP1;ratioP1;P2;durP2;ratioP2
39294;SDS011;52361;52.100;5.248;2023-05-16T00:00:48;6.1;;;1.8;;
39294;SDS011;52361;52.100;5.248;2023-05-16T00:02:25;6.6;;;2.1;;
39294;SDS011;52361;52.100;5.248;2023-05-16T00:04:01;3.0;;;1.2;;
39294;SDS011;52361;52.100;5.248;2023-05-16T00:07:13;5.11;;;2.0;;
39294;SDS011;52361;52.100;5.248;2023-05-16T00:08:49;3.8;;;1.8;;
39294;SDS011;52361;52.100;5.248;2023-05-16T00:10:25;12.4;;;1.7;;
39294;SDS011;52361;52.100;5.248;2023-05-16T00:13:38;10.5;;;1.8;;
39294;SDS011;52361;52.100;5.248;2023-05-16T00:15:14;2.5;;;1.5;;
39294;SDS011;52361;52.100;5.248;2023-05-16T00:16:50;6.0;;;1.4;;
39294;SDS011;52361;52.100;5.248;2023-05-16T00:18:26;6.5;;;1.4;;
39294;SDS011;52361;52.100;5.248;2023-05-16T00:21:40;5.11;;;1.4;;
39294;SDS011;52361;52.100;5.248;2023-05-16T00:23:16;5.2;;;1.8;;
39294;SDS011;52361;52.100;5.248;2023-05-16T00:24:52;3.2;;;1.11;;
39294;SDS011;52361;52.100;5.248;2023-05-16T00:31:17;2.9;;;1.6;;
39294;SDS011;52361;52.100;5.248;2023-05-16T00:34:29;6.6;;;1.8;;
39294;SDS011;52361;52.100;5.248;2023-05-16T00:36:05;7.0;;;2.0;;
39294;SDS011;52361;52.100;5.248;2023-05-16T00:37:42;5.3;;;1.7;;
39294;SDS011;52361;52.100;5.248;2023-05-16T00:40:55;5.11;;;1.6;;
39294;SDS011;52361;52.100;5.248;2023-05-16T00:42:31;6.8;;;2.0;;
39294;SDS011;52361;52.100;5.248;2023-05-16T00:44:07;10.21;;;2.0;;
39294;SDS011;52361;52.100;5.248;2023-05-16T00:45:43;4.8;;;2.0;;
39294;SDS011;52361;52.100;5.248;2023-05-16T00:48:56;2.31;;;1.5;;
39294;SDS011;52361;52.100;5.248;2023-05-16T00:50:32;3.1;;;1.6;;
39294;SDS011;52361;52.100;5.248;2023-05-16T00:52:09;12.7;;;1.6;;
39294;SDS011;52361;52.100;5.248;2023-05-16T00:55:21;6.0;;;1.5;;
39294;SDS011;52361;52.100;5.248;2023-05-16T00:56:57;2.6;;;1.4;;
39294;SDS011;52361;52.100;5.248;2023-05-16T00:58:34;11.0;;;1.9;;
39294;SDS011;52361;52.100;5.248;2023-05-16T01:01:48;8.5;;;1.7;;
39294;SDS011;52361;52.100;5.248;2023-05-16T01:03:26;4.8;;;1.5;;
39294;SDS011;52361;52.100;5.248;2023-05-16T01:05:02;2.9;;;1.2;;
39294;SDS011;52361;52.100;5.248;2023-05-16T01:06:39;6.7;;;1.3;;
39294;SDS011;52361;52.100;5.248;2023-05-16T01:09:52;4.3;;;1.11;;
39294;SDS011;52361;52.100;5.248;2023-05-16T01:11:30;3.3;;;1.6;;
39294;SDS011;52361;52.100;5.248;2023-05-16T01:13:15;6.5;;;1.3;;
39294;SDS011;52361;52.100;5.248;2023-05-16T01:14:59;5.2;;;1.3;;
39294;SDS011;52361;52.100;5.248;2023-05-16T01:18:28;3.8;;;1.3;;
39294;SDS011;52361;52.100;5.248;2023-05-16T01:20:18;5.0;;;1.3;;
39294;SDS011;52361;52.100;5.248;2023-05-16T01:22:05;6.3;;;1.8;;
39294;SDS011;52361;52.100;5.248;2023-05-16T01:23:50;3.0;;;1.0;;
39294;SDS011;52361;52.100;5.248;2023-05-16T01:25:31;4.1;;;1.7;;
39294;SDS011;52361;52.100;5.248;2023-05-16T01:28:58;3.3;;;1.6;;
39294;SDS011;52361;52.100;5.248;2023-05-16T01:30:36;3.0;;;1.6;;
39294;SDS011;52361;52.100;5.248;2023-05-16T01:32:15;6.5;;;1.4;;
39294;SDS011;52361;52.100;5.248;2023-05-16T01:33:51;3.5;;;1.11;;
39294;SDS011;52361;52.100;5.248;2023-05-16T01:37:06;3.2;;;1.7;;
39294;SDS011;52361;52.100;5.248;2023-05-16T01:38:53;6.6;;;1.7;;
39294;SDS011;52361;52.100;5.248;2023-05-16T01:40:44;6.6;;;1.7;;
39294;SDS011;52361;52.100;5.248;2023-05-16T01:42:28;2.5;;;1.2;;
39294;SDS011;52361;52.100;5.248;2023-05-16T01:46:02;3.7;;;1.2;;
39294;SDS011;52361;52.100;5.248;2023-05-16T01:47:46;10.3;;;1.7;;
39294;SDS011;52361;52.100;5.248;2023-05-16T01:49:35;5.9;;;2.21;;
39294;SDS011;52361;52.100;5.248;2023-05-16T01:51:18;8.6;;;2.4;;
39294;SDS011;52361;52.100;5.248;2023-05-16T01:52:58;7.3;;;1.5;;
39294;SDS011;52361;52.100;5.248;2023-05-16T01:56:19;5.5;;;2.21;;
39294;SDS011;52361;52.100;5.248;2023-05-16T01:57:57;6.2;;;1.11;;
39294;SDS011;52361;52.100;5.248;2023-05-16T01:59:35;8.0;;;2.4;;
39294;SDS011;52361;52.100;5.248;2023-05-16T02:01:13;6.4;;;1.8;;
39294;SDS011;52361;52.100;5.248;2023-05-16T02:04:25;3.5;;;1.3;;
39294;SDS011;52361;52.100;5.248;2023-05-16T02:06:01;4.91;;;1.5;;
39294;SDS011;52361;52.100;5.248;2023-05-16T02:07:38;5.7;;;1.11;;
39294;SDS011;52361;52.100;5.248;2023-05-16T02:10:50;6.4;;;1.2;;
39294;SDS011;52361;52.100;5.248;2023-05-16T02:12:26;2.7;;;1.2;;
39294;SDS011;52361;52.100;5.248;2023-05-16T02:14:02;2.7;;;0.9;;
39294;SDS011;52361;52.100;5.248;2023-05-16T02:15:38;3.3;;;1.7;;
39294;SDS011;52361;52.100;5.248;2023-05-16T02:18:51;2.31;;;1.3;;
39294;SDS011;52361;52.100;5.248;2023-05-16T02:20:27;5.4;;;1.3;;
39294;SDS011;52361;52.100;5.248;2023-05-16T02:22:03;6.0;;;1.3;;
39294;SDS011;52361;52.100;5.248;2023-05-16T02:25:15;2.1;;;1.3;;
39294;SDS011;52361;52.100;5.248;2023-05-16T02:26:51;4.91;;;1.5;;
39294;SDS011;52361;52.100;5.248;2023-05-16T02:28:28;3.1;;;1.5;;
39294;SDS011;52361;52.100;5.248;2023-05-16T02:31:41;2.0;;;1.11;;
39294;SDS011;52361;52.100;5.248;2023-05-16T02:33:17;8.4;;;2.1;;
39294;SDS011;52361;52.100;5.248;2023-05-16T02:34:53;6.0;;;1.8;;
39294;SDS011;52361;52.100;5.248;2023-05-16T02:38:06;4.41;;;1.6;;
39294;SDS011;52361;52.100;5.248;2023-05-16T02:39:43;2.7;;;1.0;;
39294;SDS011;52361;52.100;5.248;2023-05-16T02:41:19;4.5;;;1.0;;
39294;SDS011;52361;52.100;5.248;2023-05-16T02:42:55;2.21;;;1.4;;
39294;SDS011;52361;52.100;5.248;2023-05-16T02:46:18;4.7;;;1.8;;
39294;SDS011;52361;52.100;5.248;2023-05-16T02:47:55;5.3;;;2.0;;
39294;SDS011;52361;52.100;5.248;2023-05-16T02:49:32;7.6;;;1.8;;
39294;SDS011;52361;52.100;5.248;2023-05-16T02:52:44;5.11;;;1.2;;
39294;SDS011;52361;52.100;5.248;2023-05-16T02:54:20;4.8;;;1.3;;
39294;SDS011;52361;52.100;5.248;2023-05-16T02:55:56;8.6;;;1.4;;
39294;SDS011;52361;52.100;5.248;2023-05-16T02:57:33;7.0;;;1.8;;
39294;SDS011;52361;52.100;5.248;2023-05-16T03:00:46;5.6;;;1.3;;
39294;SDS011;52361;52.100;5.248;2023-05-16T03:02:22;11.5;;;1.8;;
39294;SDS011;52361;52.100;5.248;2023-05-16T03:03:58;5.2;;;1.4;;
39294;SDS011;52361;52.100;5.248;2023-05-16T03:07:10;6.1;;;3.0;;
39294;SDS011;52361;52.100;5.248;2023-05-16T03:08:47;2.4;;;1.3;;
39294;SDS011;52361;52.100;5.248;2023-05-16T03:10:23;2.5;;;1.11;;
39294;SDS011;52361;52.100;5.248;2023-05-16T03:13:35;5.3;;;1.7;;
39294;SDS011;52361;52.100;5.248;2023-05-16T03:15:11;2.9;;;1.2;;
39294;SDS011;52361;52.100;5.248;2023-05-16T03:16:47;5.3;;;1.5;;
39294;SDS011;52361;52.100;5.248;2023-05-16T03:18:24;1.8;;;1.0;;
39294;SDS011;52361;52.100;5.248;2023-05-16T03:21:35;5.11;;;1.3;;
39294;SDS011;52361;52.100;5.248;2023-05-16T03:23:11;5.7;;;1.4;;
39294;SDS011;52361;52.100;5.248;2023-05-16T03:24:47;2.21;;;1.0;;
39294;SDS011;52361;52.100;5.248;2023-05-16T03:28:00;4.3;;;1.4;;
39294;SDS011;52361;52.100;5.248;2023-05-16T03:29:36;4.2;;;2.0;;
39294;SDS011;52361;52.100;5.248;2023-05-16T03:31:12;3.0;;;1.3;;
39294;SDS011;52361;52.100;5.248;2023-05-16T03:34:24;3.2;;;1.8;;
39294;SDS011;52361;52.100;5.248;2023-05-16T03:36:00;5.4;;;1.11;;
39294;SDS011;52361;52.100;5.248;2023-05-16T03:37:37;3.9;;;1.7;;
39294;SDS011;52361;52.100;5.248;2023-05-16T03:40:49;3.1;;;2.8;;
39294;SDS011;52361;52.100;5.248;2023-05-16T03:42:25;2.21;;;1.5;;
39294;SDS011;52361;52.100;5.248;2023-05-16T03:44:01;4.1;;;1.9;;
39294;SDS011;52361;52.100;5.248;2023-05-16T03:45:37;7.0;;;1.4;;
39294;SDS011;52361;52.100;5.248;2023-05-16T03:48:50;7.8;;;1.5;;
39294;SDS011;52361;52.100;5.248;2023-05-16T03:50:26;7.1;;;2.21;;
39294;SDS011;52361;52.100;5.248;2023-05-16T03:52:02;5.8;;;1.2;;
39294;SDS011;52361;52.100;5.248;2023-05-16T03:55:14;6.1;;;1.7;;
39294;SDS011;52361;52.100;5.248;2023-05-16T03:56:50;3.0;;;1.2;;
39294;SDS011;52361;52.100;5.248;2023-05-16T03:58:27;5.4;;;2.1;;
39294;SDS011;52361;52.100;5.248;2023-05-16T04:01:42;4.3;;;1.5;;
39294;SDS011;52361;52.100;5.248;2023-05-16T04:03:18;3.6;;;1.4;;
39294;SDS011;52361;52.100;5.248;2023-05-16T04:04:54;7.2;;;1.9;;
39294;SDS011;52361;52.100;5.248;2023-05-16T04:06:31;3.6;;;1.3;;
39294;SDS011;52361;52.100;5.248;2023-05-16T04:09:43;3.7;;;2.1;;
39294;SDS011;52361;52.100;5.248;2023-05-16T04:11:19;6.6;;;1.5;;
39294;SDS011;52361;52.100;5.248;2023-05-16T04:12:55;3.3;;;1.3;;
39294;SDS011;52361;52.100;5.248;2023-05-16T04:16:10;4.41;;;1.4;;
39294;SDS011;52361;52.100;5.248;2023-05-16T04:17:46;8.6;;;2.0;;
39294;SDS011;52361;52.100;5.248;2023-05-16T04:19:22;4.3;;;1.3;;
39294;SDS011;52361;52.100;5.248;2023-05-16T04:22:34;7.4;;;1.4;;
39294;SDS011;52361;52.100;5.248;2023-05-16T04:24:10;1.7;;;1.0;;
39294;SDS011;52361;52.100;5.248;2023-05-16T04:25:47;4.8;;;1.4;;
39294;SDS011;52361;52.100;5.248;2023-05-16T04:27:23;4.3;;;1.5;;
39294;SDS011;52361;52.100;5.248;2023-05-16T04:30:35;11.2;;;2.4;;
39294;SDS011;52361;52.100;5.248;2023-05-16T04:32:11;10.5;;;3.0;;
39294;SDS011;52361;52.100;5.248;2023-05-16T04:33:47;5.11;;;1.3;;
39294;SDS011;52361;52.100;5.248;2023-05-16T04:37:02;10.4;;;1.8;;
39294;SDS011;52361;52.100;5.248;2023-05-16T04:38:38;4.8;;;1.3;;
39294;SDS011;52361;52.100;5.248;2023-05-16T04:40:14;4.61;;;1.4;;
39294;SDS011;52361;52.100;5.248;2023-05-16T04:43:26;3.8;;;1.8;;
39294;SDS011;52361;52.100;5.248;2023-05-16T04:45:03;8.4;;;1.3;;
39294;SDS011;52361;52.100;5.248;2023-05-16T04:46:40;8.9;;;1.6;;
39294;SDS011;52361;52.100;5.248;2023-05-16T04:49:52;4.2;;;1.4;;
39294;SDS011;52361;52.100;5.248;2023-05-16T04:51:28;3.9;;;1.6;;
39294;SDS011;52361;52.100;5.248;2023-05-16T04:53:04;5.6;;;1.8;;
39294;SDS011;52361;52.100;5.248;2023-05-16T04:54:40;3.1;;;1.3;;
39294;SDS011;52361;52.100;5.248;2023-05-16T04:57:53;5.11;;;2.0;;
39294;SDS011;52361;52.100;5.248;2023-05-16T04:59:29;4.91;;;0.9;;
39294;SDS011;52361;52.100;5.248;2023-05-16T05:01:05;4.61;;;1.7;;
39294;SDS011;52361;52.100;5.248;2023-05-16T05:04:18;4.61;;;1.4;;
39294;SDS011;52361;52.100;5.248;2023-05-16T05:05:54;3.8;;;1.3;;
39294;SDS011;52361;52.100;5.248;2023-05-16T05:07:30;3.8;;;1.2;;
39294;SDS011;52361;52.100;5.248;2023-05-16T05:10:43;1.9;;;1.2;;
39294;SDS011;52361;52.100;5.248;2023-05-16T05:12:19;8.5;;;2.1;;
39294;SDS011;52361;52.100;5.248;2023-05-16T05:13:56;7.8;;;1.4;;
39294;SDS011;52361;52.100;5.248;2023-05-16T05:15:32;7.8;;;1.4;;
39294;SDS011;52361;52.100;5.248;2023-05-16T05:18:44;8.9;;;1.8;;
39294;SDS011;52361;52.100;5.248;2023-05-16T05:20:20;4.3;;;1.9;;
39294;SDS011;52361;52.100;5.248;2023-05-16T05:21:56;4.41;;;1.3;;
39294;SDS011;52361;52.100;5.248;2023-05-16T05:25:09;2.4;;;1.2;;
39294;SDS011;52361;52.100;5.248;2023-05-16T05:26:45;11.4;;;1.7;;
39294;SDS011;52361;52.100;5.248;2023-05-16T05:28:21;3.9;;;1.11;;
39294;SDS011;52361;52.100;5.248;2023-05-16T05:31:32;4.5;;;1.5;;
39294;SDS011;52361;52.100;5.248;2023-05-16T05:33:09;3.0;;;1.0;;
39294;SDS011;52361;52.100;5.248;2023-05-16T05:34:46;3.0;;;1.6;;
39294;SDS011;52361;52.100;5.248;2023-05-16T05:37:59;5.6;;;1.7;;
39294;SDS011;52361;52.100;5.248;2023-05-16T05:39:35;2.4;;;1.0;;
39294;SDS011;52361;52.100;5.248;2023-05-16T05:41:11;4.61;;;1.4;;
39294;SDS011;52361;52.100;5.248;2023-05-16T05:42:48;2.8;;;1.4;;
39294;SDS011;52361;52.100;5.248;2023-05-16T05:46:00;1.9;;;0.9;;
39294;SDS011;52361;52.100;5.248;2023-05-16T05:47:36;3.9;;;1.8;;
39294;SDS011;52361;52.100;5.248;2023-05-16T05:49:12;3.2;;;1.0;;
39294;SDS011;52361;52.100;5.248;2023-05-16T05:52:25;1.9;;;1.11;;
39294;SDS011;52361;52.100;5.248;2023-05-16T05:54:01;5.9;;;1.2;;
39294;SDS011;52361;52.100;5.248;2023-05-16T05:55:38;2.21;;;0.9;;
39294;SDS011;52361;52.100;5.248;2023-05-16T05:58:50;2.8;;;1.0;;
39294;SDS011;52361;52.100;5.248;2023-05-16T06:00:26;6.4;;;1.0;;
39294;SDS011;52361;52.100;5.248;2023-05-16T06:02:03;3.0;;;0.8;;
39294;SDS011;52361;52.100;5.248;2023-05-16T06:03:39;3.7;;;1.2;;
39294;SDS011;52361;52.100;5.248;2023-05-16T06:06:51;3.1;;;1.11;;
39294;SDS011;52361;52.100;5.248;2023-05-16T06:08:27;1.2;;;0.8;;
39294;SDS011;52361;52.100;5.248;2023-05-16T06:10:04;1.11;;;1.0;;
39294;SDS011;52361;52.100;5.248;2023-05-16T06:13:17;2.6;;;0.9;;
39294;SDS011;52361;52.100;5.248;2023-05-16T06:14:53;1.4;;;1.0;;
39294;SDS011;52361;52.100;5.248;2023-05-16T06:16:29;2.0;;;0.9;;
39294;SDS011;52361;52.100;5.248;2023-05-16T06:19:42;4.1;;;0.9;;
39294;SDS011;52361;52.100;5.248;2023-05-16T06:21:18;2.5;;;1.4;;
39294;SDS011;52361;52.100;5.248;2023-05-16T06:22:54;1.8;;;1.0;;
39294;SDS011;52361;52.100;5.248;2023-05-16T06:26:06;3.5;;;1.4;;
39294;SDS011;52361;52.100;5.248;2023-05-16T06:27:42;1.2;;;1.0;;
39294;SDS011;52361;52.100;5.248;2023-05-16T06:29:19;2.1;;;1.0;;
39294;SDS011;52361;52.100;5.248;2023-05-16T06:30:55;3.1;;;1.11;;
39294;SDS011;52361;52.100;5.248;2023-05-16T06:34:07;3.1;;;0.8;;
39294;SDS011;52361;52.100;5.248;2023-05-16T06:35:43;3.1;;;0.9;;
39294;SDS011;52361;52.100;5.248;2023-05-16T06:37:19;5.6;;;0.9;;
39294;SDS011;52361;52.100;5.248;2023-05-16T06:42:09;3.1;;;1.2;;
39294;SDS011;52361;52.100;5.248;2023-05-16T06:43:45;2.7;;;1.0;;
39294;SDS011;52361;52.100;5.248;2023-05-16T06:46:57;3.6;;;0.9;;
39294;SDS011;52361;52.100;5.248;2023-05-16T06:48:34;4.2;;;1.0;;
39294;SDS011;52361;52.100;5.248;2023-05-16T06:50:10;3.2;;;0.8;;
39294;SDS011;52361;52.100;5.248;2023-05-16T06:51:46;3.8;;;0.8;;
39294;SDS011;52361;52.100;5.248;2023-05-16T06:54:58;3.5;;;1.3;;
39294;SDS011;52361;52.100;5.248;2023-05-16T06:56:34;1.6;;;0.7;;
39294;SDS011;52361;52.100;5.248;2023-05-16T06:58:11;3.4;;;1.7;;
39294;SDS011;52361;52.100;5.248;2023-05-16T07:01:23;3.1;;;0.6;;
39294;SDS011;52361;52.100;5.248;2023-05-16T07:02:59;3.8;;;0.9;;
39294;SDS011;52361;52.100;5.248;2023-05-16T07:04:34;3.3;;;1.11;;
39294;SDS011;52361;52.100;5.248;2023-05-16T07:07:47;2.8;;;0.9;;
39294;SDS011;52361;52.100;5.248;2023-05-16T07:09:23;2.9;;;0.8;;
39294;SDS011;52361;52.100;5.248;2023-05-16T07:10:59;1.7;;;0.8;;
39294;SDS011;52361;52.100;5.248;2023-05-16T07:14:12;1.8;;;0.7;;
39294;SDS011;52361;52.100;5.248;2023-05-16T07:15:48;0.7;;;0.5;;
39294;SDS011;52361;52.100;5.248;2023-05-16T07:17:24;4.5;;;1.3;;
39294;SDS011;52361;52.100;5.248;2023-05-16T07:19:00;2.0;;;0.6;;
39294;SDS011;52361;52.100;5.248;2023-05-16T07:22:12;4.5;;;0.5;;
39294;SDS011;52361;52.100;5.248;2023-05-16T07:23:49;1.3;;;0.6;;
39294;SDS011;52361;52.100;5.248;2023-05-16T07:25:25;0.9;;;0.4;;
39294;SDS011;52361;52.100;5.248;2023-05-16T07:28:37;0.6;;;0.5;;
39294;SDS011;52361;52.100;5.248;2023-05-16T07:30:13;2.5;;;0.9;;
39294;SDS011;52361;52.100;5.248;2023-05-16T07:31:50;1.8;;;0.7;;
39294;SDS011;52361;52.100;5.248;2023-05-16T07:35:02;7.0;;;0.9;;
39294;SDS011;52361;52.100;5.248;2023-05-16T07:36:40;1.0;;;0.5;;
39294;SDS011;52361;52.100;5.248;2023-05-16T07:38:16;0.9;;;0.6;;
39294;SDS011;52361;52.100;5.248;2023-05-16T07:39:52;1.4;;;0.6;;
39294;SDS011;52361;52.100;5.248;2023-05-16T07:43:06;2.0;;;0.8;;
39294;SDS011;52361;52.100;5.248;2023-05-16T07:44:42;3.4;;;1.0;;
39294;SDS011;52361;52.100;5.248;2023-05-16T07:46:18;1.5;;;0.9;;
39294;SDS011;52361;52.100;5.248;2023-05-16T07:49:30;1.2;;;0.8;;
39294;SDS011;52361;52.100;5.248;2023-05-16T07:51:06;1.2;;;0.8;;
39294;SDS011;52361;52.100;5.248;2023-05-16T07:52:43;1.4;;;0.5;;
39294;SDS011;52361;52.100;5.248;2023-05-16T07:55:55;7.0;;;0.9;;
39294;SDS011;52361;52.100;5.248;2023-05-16T07:57:31;4.91;;;1.0;;
39294;SDS011;52361;52.100;5.248;2023-05-16T07:59:07;3.3;;;1.4;;
39294;SDS011;52361;52.100;5.248;2023-05-16T08:02:20;1.3;;;1.2;;
39294;SDS011;52361;52.100;5.248;2023-05-16T08:03:57;2.5;;;0.5;;
39294;SDS011;52361;52.100;5.248;2023-05-16T08:05:33;3.6;;;0.7;;
39294;SDS011;52361;52.100;5.248;2023-05-16T08:07:09;1.4;;;0.5;;
39294;SDS011;52361;52.100;5.248;2023-05-16T08:10:21;1.7;;;0.6;;
39294;SDS011;52361;52.100;5.248;2023-05-16T08:11:58;3.3;;;1.4;;
39294;SDS011;52361;52.100;5.248;2023-05-16T08:13:34;3.6;;;0.9;;
39294;SDS011;52361;52.100;5.248;2023-05-16T08:16:46;0.6;;;0.6;;
39294;SDS011;52361;52.100;5.248;2023-05-16T08:18:22;1.9;;;1.0;;
39294;SDS011;52361;52.100;5.248;2023-05-16T08:19:58;1.8;;;0.4;;
39294;SDS011;52361;52.100;5.248;2023-05-16T08:23:11;4.1;;;0.7;;
39294;SDS011;52361;52.100;5.248;2023-05-16T08:24:49;0.8;;;0.7;;
39294;SDS011;52361;52.100;5.248;2023-05-16T08:26:25;2.31;;;0.8;;
39294;SDS011;52361;52.100;5.248;2023-05-16T08:28:01;0.8;;;0.5;;
39294;SDS011;52361;52.100;5.248;2023-05-16T08:31:14;3.9;;;1.0;;
39294;SDS011;52361;52.100;5.248;2023-05-16T08:32:50;2.8;;;0.7;;
39294;SDS011;52361;52.100;5.248;2023-05-16T08:34:26;2.1;;;1.11;;
39294;SDS011;52361;52.100;5.248;2023-05-16T08:37:41;1.3;;;0.5;;
39294;SDS011;52361;52.100;5.248;2023-05-16T08:39:19;3.5;;;0.4;;
39294;SDS011;52361;52.100;5.248;2023-05-16T08:40:55;1.2;;;0.9;;
39294;SDS011;52361;52.100;5.248;2023-05-16T08:44:08;3.6;;;0.6;;
39294;SDS011;52361;52.100;5.248;2023-05-16T08:45:44;1.7;;;0.8;;
39294;SDS011;52361;52.100;5.248;2023-05-16T08:47:20;1.11;;;0.5;;
39294;SDS011;52361;52.100;5.248;2023-05-16T08:49:01;1.4;;;1.3;;
39294;SDS011;52361;52.100;5.248;2023-05-16T08:52:15;2.21;;;1.0;;
39294;SDS011;52361;52.100;5.248;2023-05-16T08:53:56;2.9;;;0.8;;
39294;SDS011;52361;52.100;5.248;2023-05-16T08:55:37;2.5;;;1.0;;
39294;SDS011;52361;52.100;5.248;2023-05-16T08:57:16;4.7;;;0.8;;
39294;SDS011;52361;52.100;5.248;2023-05-16T09:00:30;1.0;;;0.6;;
39294;SDS011;52361;52.100;5.248;2023-05-16T09:02:06;1.4;;;0.4;;
39294;SDS011;52361;52.100;5.248;2023-05-16T09:03:43;2.7;;;0.9;;
39294;SDS011;52361;52.100;5.248;2023-05-16T09:06:58;0.8;;;0.8;;
39294;SDS011;52361;52.100;5.248;2023-05-16T09:10:10;1.7;;;0.5;;
39294;SDS011;52361;52.100;5.248;2023-05-16T09:13:24;1.2;;;0.8;;
39294;SDS011;52361;52.100;5.248;2023-05-16T09:15:01;0.6;;;0.5;;
39294;SDS011;52361;52.100;5.248;2023-05-16T09:16:39;1.4;;;1.11;;
39294;SDS011;52361;52.100;5.248;2023-05-16T09:18:15;7.3;;;1.5;;
39294;SDS011;52361;52.100;5.248;2023-05-16T09:21:27;1.2;;;0.6;;
39294;SDS011;52361;52.100;5.248;2023-05-16T09:23:05;5.0;;;1.11;;
39294;SDS011;52361;52.100;5.248;2023-05-16T09:24:42;1.8;;;0.8;;
39294;SDS011;52361;52.100;5.248;2023-05-16T09:27:58;7.2;;;1.11;;
39294;SDS011;52361;52.100;5.248;2023-05-16T09:29:35;0.5;;;0.5;;
39294;SDS011;52361;52.100;5.248;2023-05-16T09:31:19;2.21;;;0.5;;
39294;SDS011;52361;52.100;5.248;2023-05-16T09:32:56;2.21;;;1.0;;
39294;SDS011;52361;52.100;5.248;2023-05-16T09:36:13;1.7;;;0.9;;
39294;SDS011;52361;52.100;5.248;2023-05-16T09:37:50;1.3;;;0.7;;
39294;SDS011;52361;52.100;5.248;2023-05-16T09:39:26;1.3;;;0.9;;
39294;SDS011;52361;52.100;5.248;2023-05-16T09:42:38;0.8;;;0.8;;
39294;SDS011;52361;52.100;5.248;2023-05-16T09:44:15;1.9;;;0.4;;
39294;SDS011;52361;52.100;5.248;2023-05-16T09:45:53;0.6;;;0.4;;
39294;SDS011;52361;52.100;5.248;2023-05-16T09:47:29;2.1;;;1.0;;
39294;SDS011;52361;52.100;5.248;2023-05-16T09:50:45;1.2;;;0.6;;
39294;SDS011;52361;52.100;5.248;2023-05-16T09:52:25;1.0;;;0.6;;
39294;SDS011;52361;52.100;5.248;2023-05-16T09:54:01;1.3;;;0.6;;
39294;SDS011;52361;52.100;5.248;2023-05-16T09:57:18;1.2;;;0.4;;
39294;SDS011;52361;52.100;5.248;2023-05-16T09:58:54;2.7;;;1.11;;
39294;SDS011;52361;52.100;5.248;2023-05-16T10:00:31;3.4;;;0.8;;
39294;SDS011;52361;52.100;5.248;2023-05-16T10:02:08;1.3;;;0.5;;
39294;SDS011;52361;52.100;5.248;2023-05-16T10:05:22;2.0;;;0.7;;
39294;SDS011;52361;52.100;5.248;2023-05-16T10:07:00;2.21;;;0.7;;
39294;SDS011;52361;52.100;5.248;2023-05-16T10:08:38;1.2;;;0.7;;
39294;SDS011;52361;52.100;5.248;2023-05-16T10:11:54;2.1;;;0.5;;
39294;SDS011;52361;52.100;5.248;2023-05-16T10:13:32;2.21;;;0.5;;
39294;SDS011;52361;52.100;5.248;2023-05-16T10:15:10;1.6;;;0.5;;
39294;SDS011;52361;52.100;5.248;2023-05-16T10:16:46;2.6;;;0.7;;
39294;SDS011;52361;52.100;5.248;2023-05-16T10:20:06;0.8;;;0.5;;
39294;SDS011;52361;52.100;5.248;2023-05-16T10:23:27;4.0;;;1.0;;
39294;SDS011;52361;52.100;5.248;2023-05-16T10:26:50;8.2;;;1.11;;
39294;SDS011;52361;52.100;5.248;2023-05-16T10:28:27;2.21;;;0.8;;
39294;SDS011;52361;52.100;5.248;2023-05-16T10:30:04;5.4;;;1.3;;
39294;SDS011;52361;52.100;5.248;2023-05-16T10:31:42;1.0;;;0.9;;
39294;SDS011;52361;52.100;5.248;2023-05-16T10:34:55;2.5;;;0.5;;
39294;SDS011;52361;52.100;5.248;2023-05-16T10:36:31;1.6;;;0.7;;
39294;SDS011;52361;52.100;5.248;2023-05-16T10:38:07;0.6;;;0.6;;
39294;SDS011;52361;52.100;5.248;2023-05-16T10:39:46;1.8;;;0.7;;
39294;SDS011;52361;52.100;5.248;2023-05-16T10:43:00;1.7;;;0.9;;
39294;SDS011;52361;52.100;5.248;2023-05-16T10:44:38;1.9;;;0.8;;
39294;SDS011;52361;52.100;5.248;2023-05-16T10:46:14;2.31;;;0.7;;
39294;SDS011;52361;52.100;5.248;2023-05-16T10:49:29;1.9;;;0.6;;
39294;SDS011;52361;52.100;5.248;2023-05-16T10:51:32;2.1;;;0.7;;
39294;SDS011;52361;52.100;5.248;2023-05-16T10:53:18;1.4;;;0.6;;
39294;SDS011;52361;52.100;5.248;2023-05-16T10:54:56;0.6;;;0.5;;
39294;SDS011;52361;52.100;5.248;2023-05-16T10:56:38;1.4;;;0.5;;
39294;SDS011;52361;52.100;5.248;2023-05-16T10:59:57;4.61;;;1.0;;
39294;SDS011;52361;52.100;5.248;2023-05-16T11:01:34;1.5;;;0.7;;
39294;SDS011;52361;52.100;5.248;2023-05-16T11:03:18;1.0;;;0.5;;
39294;SDS011;52361;52.100;5.248;2023-05-16T11:04:58;2.4;;;0.4;;
39294;SDS011;52361;52.100;5.248;2023-05-16T11:08:28;3.1;;;0.8;;
39294;SDS011;52361;52.100;5.248;2023-05-16T11:10:05;3.4;;;0.8;;
39294;SDS011;52361;52.100;5.248;2023-05-16T11:11:44;0.5;;;0.5;;
39294;SDS011;52361;52.100;5.248;2023-05-16T11:13:22;2.1;;;0.8;;
39294;SDS011;52361;52.100;5.248;2023-05-16T11:16:35;1.7;;;0.5;;
39294;SDS011;52361;52.100;5.248;2023-05-16T11:18:13;0.7;;;0.7;;
39294;SDS011;52361;52.100;5.248;2023-05-16T11:19:54;2.0;;;0.6;;
39294;SDS011;52361;52.100;5.248;2023-05-16T11:24:29;2.31;;;0.7;;
39294;SDS011;52361;52.100;5.248;2023-05-16T11:26:07;1.11;;;0.6;;
39294;SDS011;52361;52.100;5.248;2023-05-16T11:29:22;1.8;;;0.9;;
39294;SDS011;52361;52.100;5.248;2023-05-16T11:30:59;2.5;;;0.7;;
39294;SDS011;52361;52.100;5.248;2023-05-16T11:32:36;0.7;;;0.4;;
39294;SDS011;52361;52.100;5.248;2023-05-16T11:34:16;2.0;;;0.9;;
39294;SDS011;52361;52.100;5.248;2023-05-16T11:37:37;3.4;;;0.6;;
39294;SDS011;52361;52.100;5.248;2023-05-16T11:39:14;1.11;;;1.0;;
39294;SDS011;52361;52.100;5.248;2023-05-16T11:40:50;2.5;;;1.2;;
39294;SDS011;52361;52.100;5.248;2023-05-16T11:44:05;2.8;;;0.8;;
39294;SDS011;52361;52.100;5.248;2023-05-16T11:45:41;0.8;;;0.6;;
39294;SDS011;52361;52.100;5.248;2023-05-16T11:47:17;1.9;;;0.3;;
39294;SDS011;52361;52.100;5.248;2023-05-16T11:48:53;0.4;;;0.4;;
39294;SDS011;52361;52.100;5.248;2023-05-16T11:52:08;2.31;;;0.5;;
39294;SDS011;52361;52.100;5.248;2023-05-16T11:53:45;3.8;;;0.5;;
39294;SDS011;52361;52.100;5.248;2023-05-16T11:55:23;4.7;;;0.8;;
39294;SDS011;52361;52.100;5.248;2023-05-16T11:58:37;0.4;;;0.4;;
39294;SDS011;52361;52.100;5.248;2023-05-16T12:00:14;2.6;;;1.0;;
39294;SDS011;52361;52.100;5.248;2023-05-16T12:01:52;1.5;;;0.8;;
39294;SDS011;52361;52.100;5.248;2023-05-16T12:03:29;1.6;;;0.7;;
39294;SDS011;52361;52.100;5.248;2023-05-16T12:06:43;1.4;;;0.7;;
39294;SDS011;52361;52.100;5.248;2023-05-16T12:08:19;2.6;;;0.7;;
39294;SDS011;52361;52.100;5.248;2023-05-16T12:09:56;1.0;;;0.6;;
39294;SDS011;52361;52.100;5.248;2023-05-16T12:13:09;0.6;;;0.6;;
39294;SDS011;52361;52.100;5.248;2023-05-16T12:14:46;0.6;;;0.6;;
39294;SDS011;52361;52.100;5.248;2023-05-16T12:16:22;3.5;;;0.6;;
39294;SDS011;52361;52.100;5.248;2023-05-16T12:19:34;1.2;;;0.6;;
39294;SDS011;52361;52.100;5.248;2023-05-16T12:21:11;2.9;;;0.8;;
39294;SDS011;52361;52.100;5.248;2023-05-16T12:22:48;2.0;;;1.0;;
39294;SDS011;52361;52.100;5.248;2023-05-16T12:24:28;4.2;;;0.9;;
39294;SDS011;52361;52.100;5.248;2023-05-16T12:27:41;3.5;;;0.7;;
39294;SDS011;52361;52.100;5.248;2023-05-16T12:29:17;0.8;;;0.5;;
39294;SDS011;52361;52.100;5.248;2023-05-16T12:30:55;1.3;;;0.6;;
39294;SDS011;52361;52.100;5.248;2023-05-16T12:34:13;1.8;;;1.0;;
39294;SDS011;52361;52.100;5.248;2023-05-16T12:35:50;1.6;;;0.8;;
39294;SDS011;52361;52.100;5.248;2023-05-16T12:37:26;3.9;;;0.7;;
39294;SDS011;52361;52.100;5.248;2023-05-16T12:39:02;2.21;;;1.11;;
39294;SDS011;52361;52.100;5.248;2023-05-16T12:42:18;2.6;;;0.8;;
39294;SDS011;52361;52.100;5.248;2023-05-16T12:44:04;6.1;;;0.7;;
39294;SDS011;52361;52.100;5.248;2023-05-16T12:45:41;1.3;;;0.5;;
39294;SDS011;52361;52.100;5.248;2023-05-16T12:47:23;5.2;;;1.0;;
39294;SDS011;52361;52.100;5.248;2023-05-16T12:50:46;3.5;;;0.9;;
39294;SDS011;52361;52.100;5.248;2023-05-16T12:52:23;4.1;;;0.7;;
39294;SDS011;52361;52.100;5.248;2023-05-16T12:54:05;1.6;;;0.9;;
39294;SDS011;52361;52.100;5.248;2023-05-16T12:57:20;2.21;;;0.6;;
39294;SDS011;52361;52.100;5.248;2023-05-16T12:58:56;0.7;;;0.7;;
39294;SDS011;52361;52.100;5.248;2023-05-16T13:00:33;3.3;;;0.7;;
39294;SDS011;52361;52.100;5.248;2023-05-16T13:02:09;6.6;;;1.3;;
39294;SDS011;52361;52.100;5.248;2023-05-16T13:05:21;3.0;;;0.9;;
39294;SDS011;52361;52.100;5.248;2023-05-16T13:06:57;2.7;;;0.7;;
39294;SDS011;52361;52.100;5.248;2023-05-16T13:08:33;3.3;;;1.11;;